.
WxDataArchive / Data Records for 2014-03-15
2014-03-14 March 2014 2014-03-16

Data Records for Saturday, 15 March 2014

Time	Temp	Chill	HIndex	Humid	Dewpt	 Wind 	HiWind	WindDir	Rain 	Barom
-----	----	-----	------	-----	-----	------	------	-------	-----	-----
00:00	40.3	40.3	40.3	71	31.7	2	5	270	0.00	29.817 
00:05	40.1	40.1	40.1	71	31.5	2	4	248	0.00	29.817 
00:10	39.9	39.9	39.9	72	31.6	2	4	248	0.00	29.817 
00:15	39.8	39.8	39.8	72	31.5	1	3	248	0.00	29.816 
00:20	39.6	39.6	39.6	72	31.3	1	3	248	0.00	29.816 
00:25	39.3	39.3	39.3	73	31.4	0	2	248	0.00	29.816 
00:30	39.1	39.1	39.1	73	31.2	0	1	248	0.00	29.822 
00:35	38.8	38.8	38.8	73	30.9	0	2	248	0.00	29.822 
00:40	38.6	38.6	38.6	74	31.0	0	2	248	0.00	29.822 
00:45	38.5	38.5	38.5	75	31.3	0	2	248	0.00	29.819 
00:50	38.5	38.5	38.5	75	31.3	1	2	248	0.00	29.819 
00:55	38.3	38.3	38.3	75	31.1	0	1	248	0.00	29.819 
01:00	38.2	38.2	38.2	75	31.0	0	1	248	0.00	29.818 
01:05	38.0	38.0	38.0	75	30.8	0	1	248	0.00	29.818 
01:10	37.9	37.9	37.9	75	30.7	0	2	248	0.00	29.818 
01:15	37.9	37.9	37.9	76	31.0	0	2	248	0.00	29.822 
01:20	37.8	37.8	37.8	76	30.9	1	4	248	0.00	29.822 
01:25	37.8	37.8	37.8	76	30.9	0	2	248	0.00	29.822 
01:30	37.8	37.8	37.8	76	30.9	1	4	248	0.00	29.818 
01:35	37.8	37.8	37.8	75	30.6	0	3	248	0.00	29.818 
01:40	37.8	37.8	37.8	76	30.9	0	4	248	0.00	29.818 
01:45	37.8	37.8	37.8	75	30.6	0	2	248	0.00	29.816 
01:50	37.6	37.6	37.6	76	30.7	1	3	248	0.00	29.816 
01:55	37.6	37.6	37.6	76	30.7	1	4	248	0.00	29.816 
02:00	37.5	37.5	37.5	76	30.6	1	2	248	0.00	29.815 
02:05	37.5	37.5	37.5	76	30.6	1	4	248	0.00	29.815 
02:10	37.3	37.3	37.3	76	30.4	1	4	248	0.00	29.815 
02:15	37.2	37.2	37.2	76	30.3	0	2	248	0.00	29.813 
02:20	37.0	37.0	37.0	77	30.5	1	3	248	0.00	29.813 
02:25	37.0	37.0	37.0	77	30.5	1	2	248	0.00	29.813 
02:30	37.0	37.0	37.0	77	30.5	1	3	248	0.00	29.822 
02:35	37.0	37.0	37.0	77	30.5	1	3	248	0.00	29.822 
02:40	36.9	36.9	36.9	77	30.4	1	4	248	0.00	29.822 
02:45	36.9	36.9	36.9	77	30.4	1	4	248	0.00	29.826 
02:50	36.9	36.9	36.9	78	30.7	1	4	248	0.00	29.826 
02:55	36.9	36.9	36.9	78	30.7	1	4	248	0.00	29.826 
03:00	36.9	36.9	36.9	78	30.7	1	3	248	0.00	29.830 
03:05	36.8	36.8	36.8	78	30.6	1	3	248	0.00	29.830 
03:10	36.8	36.8	36.8	78	30.6	1	5	248	0.00	29.830 
03:15	36.6	36.6	36.6	78	30.4	1	3	248	0.00	29.835 
03:20	36.6	36.6	36.6	78	30.4	1	3	248	0.00	29.835 
03:25	36.6	36.6	36.6	79	30.7	1	4	248	0.00	29.835 
03:30	36.5	36.5	36.5	78	30.3	1	2	248	0.00	29.834 
03:35	36.5	36.5	36.5	79	30.6	1	4	248	0.00	29.834 
03:40	36.2	36.2	36.2	79	30.3	0	3	248	0.00	29.834 
03:45	36.2	36.2	36.2	79	30.3	1	3	248	0.00	29.840 
03:50	36.0	36.0	36.0	79	30.1	1	4	248	0.00	29.840 
03:55	36.0	36.0	36.0	80	30.4	1	4	248	0.00	29.840 
04:00	35.9	35.9	35.9	79	30.0	1	2	248	0.00	29.841 
04:05	35.9	35.9	35.9	79	30.0	1	2	248	0.00	29.841 
04:10	35.9	35.9	35.9	79	30.0	0	2	248	0.00	29.841 
04:15	35.8	35.8	35.8	79	29.9	0	2	248	0.00	29.842 
04:20	35.6	35.6	35.6	79	29.7	0	3	248	0.00	29.842 
04:25	35.6	35.6	35.6	79	29.7	1	3	248	0.00	29.842 
04:30	35.6	35.6	35.6	79	29.7	1	2	248	0.00	29.840 
04:35	35.6	35.6	35.6	79	29.7	1	2	248	0.00	29.840 
04:40	35.5	35.5	35.5	79	29.6	1	3	248	0.00	29.840 
04:45	35.5	35.5	35.5	79	29.6	0	2	248	0.00	29.838 
04:50	35.3	35.3	35.3	79	29.4	0	2	248	0.00	29.838 
04:55	35.3	35.3	35.3	79	29.4	1	3	248	0.00	29.838 
05:00	35.3	35.3	35.3	79	29.4	1	3	248	0.00	29.841 
05:05	35.3	35.3	35.3	78	29.1	0	2	248	0.00	29.841 
05:10	35.2	35.2	35.2	78	29.0	0	2	248	0.00	29.841 
05:15	35.0	35.0	35.0	79	29.2	0	2	248	0.00	29.846 
05:20	34.9	34.9	34.9	79	29.1	0	3	248	0.00	29.846 
05:25	34.9	34.9	34.9	79	29.1	0	2	248	0.00	29.846 
05:30	34.9	34.9	34.9	79	29.1	0	2	248	0.00	29.858 
05:35	34.7	34.7	34.7	80	29.2	0	3	248	0.00	29.858 
05:40	34.6	34.6	34.6	80	29.1	0	3	248	0.00	29.858 
05:45	34.4	34.4	34.4	80	28.9	0	1	248	0.00	29.860 
05:50	34.3	34.3	34.3	80	28.8	0	1	248	0.00	29.860 
05:55	34.3	34.3	34.3	80	28.8	0	1	248	0.00	29.860 
06:00	34.1	34.1	34.1	80	28.6	0	1	248	0.00	29.869 
06:05	34.1	34.1	34.1	81	28.9	0	1	248	0.00	29.869 
06:10	34.0	34.0	34.0	81	28.8	0	1	248	0.00	29.869 
06:15	34.0	34.0	34.0	81	28.8	0	1	248	0.00	29.876 
06:20	33.8	33.8	33.8	81	28.6	0	1	248	0.00	29.876 
06:25	33.8	33.8	33.8	81	28.6	0	1	248	0.00	29.876 
06:30	33.7	33.7	33.7	81	28.5	0	0	---	0.00	29.882 
06:35	33.7	33.7	33.7	81	28.5	0	2	248	0.00	29.882 
06:40	33.7	33.7	33.7	81	28.5	0	1	248	0.00	29.882 
06:45	33.8	33.8	33.8	81	28.6	0	1	248	0.00	29.892 
06:50	33.8	33.8	33.8	81	28.6	0	1	248	0.00	29.892 
06:55	34.0	34.0	34.0	81	28.8	0	2	248	0.00	29.892 
07:00	34.3	34.3	34.3	81	29.1	1	6	338	0.00	29.898 
07:05	34.4	34.4	34.4	80	28.9	0	2	338	0.00	29.898 
07:10	34.6	34.6	34.6	80	29.1	0	2	338	0.00	29.898 
07:15	34.4	34.4	34.4	79	28.6	0	2	338	0.00	29.910 
07:20	34.4	34.4	34.4	79	28.6	0	2	338	0.00	29.910 
07:25	34.3	34.3	34.3	79	28.5	0	1	338	0.00	29.910 
07:30	34.1	34.1	34.1	79	28.3	0	1	338	0.00	29.912 
07:35	33.8	33.8	33.8	80	28.3	0	1	338	0.00	29.912 
07:40	33.7	33.7	33.7	80	28.2	0	1	338	0.00	29.912 
07:45	33.5	33.5	33.5	81	28.3	0	1	338	0.00	29.916 
07:50	33.4	33.4	33.4	81	28.2	0	1	338	0.00	29.916 
07:55	33.2	33.2	33.2	81	28.0	0	1	338	0.00	29.916 
08:00	33.1	33.1	33.1	81	27.9	0	0	---	0.00	29.927 
08:05	32.9	32.9	32.9	82	28.0	0	1	338	0.00	29.927 
08:10	32.8	32.8	32.8	82	27.9	0	1	338	0.00	29.927 
08:15	32.8	32.8	32.8	82	27.9	0	1	338	0.00	29.943 
08:20	32.8	32.8	32.8	83	28.2	0	1	338	0.00	29.943 
08:25	32.9	32.9	32.9	83	28.3	0	1	338	0.00	29.943 
08:30	33.1	33.1	33.1	83	28.5	0	1	338	0.00	29.951 
08:35	33.4	33.4	33.4	83	28.8	0	1	338	0.00	29.951 
08:40	33.5	33.5	33.5	83	28.9	0	2	338	0.00	29.951 
08:45	34.0	34.0	34.0	83	29.4	1	2	292	0.00	29.957 
08:50	34.6	34.6	34.6	82	29.7	2	3	248	0.00	29.957 
08:55	35.0	35.0	35.0	81	29.8	1	4	248	0.00	29.957 
09:00	35.5	35.5	35.5	80	30.0	1	3	248	0.00	29.968 
09:05	35.8	35.8	35.8	79	29.9	1	2	248	0.00	29.968 
09:10	35.9	35.9	35.9	78	29.7	1	4	248	0.00	29.968 
09:15	35.9	35.9	35.9	77	29.4	2	6	292	0.00	29.977 
09:20	35.9	35.9	35.9	77	29.4	2	5	270	0.00	29.977 
09:25	36.0	36.0	36.0	77	29.5	2	4	292	0.00	29.977 
09:30	36.2	36.2	36.2	77	29.7	2	4	248	0.00	29.980 
09:35	36.3	36.3	36.3	76	29.5	1	3	270	0.00	29.980 
09:40	36.6	36.6	36.6	75	29.4	2	6	248	0.00	29.980 
09:45	36.8	36.8	36.8	74	29.3	2	5	270	0.00	29.992 
09:50	36.9	36.9	36.9	73	29.1	1	4	292	0.00	29.992 
09:55	37.0	37.0	37.0	72	28.8	2	7	270	0.00	29.992 
10:00	37.2	37.2	37.2	72	29.0	2	7	338	0.00	29.999 
10:05	37.3	37.3	37.3	70	28.4	2	5	338	0.00	29.999 
10:10	37.6	37.6	37.6	70	28.7	2	4	270	0.00	29.999 
10:15	37.8	37.8	37.8	69	28.6	2	4	292	0.00	30.008 
10:20	37.8	37.8	37.8	67	27.8	3	9	292	0.00	30.008 
10:25	37.9	37.9	37.9	67	27.9	3	7	315	0.00	30.008 
10:30	38.2	38.2	38.2	67	28.2	2	5	270	0.00	30.016 
10:35	37.9	37.9	37.9	66	27.6	3	5	270	0.00	30.016 
10:40	37.8	37.8	37.8	67	27.8	1	5	270	0.00	30.016 
10:45	37.5	34.4	37.5	66	27.2	4	7	338	0.00	30.025 
10:50	37.2	37.2	37.2	65	26.5	3	9	315	0.00	30.025 
10:55	37.2	37.2	37.2	67	27.3	2	6	270	0.00	30.025 
11:00	37.8	37.8	37.8	65	27.1	2	5	292	0.00	30.034 
11:05	38.2	38.2	38.2	65	27.5	2	4	292	0.00	30.034 
11:10	38.5	38.5	38.5	64	27.4	2	7	270	0.00	30.034 
11:15	38.5	38.5	38.5	62	26.6	3	7	315	0.00	30.043 
11:20	38.0	38.0	38.0	62	26.2	2	5	315	0.00	30.043 
11:25	38.0	38.0	38.0	63	26.5	1	4	315	0.00	30.043 
11:30	38.6	38.6	38.6	62	26.7	2	5	292	0.00	30.054 
11:35	38.5	38.5	38.5	60	25.8	2	5	292	0.00	30.054 
11:40	38.2	38.2	38.2	61	26.0	2	5	315	0.00	30.054 
11:45	38.2	38.2	38.2	62	26.3	2	5	338	0.00	30.058 
11:50	38.6	38.6	38.6	63	27.1	1	3	338	0.00	30.058 
11:55	39.2	39.2	39.2	61	26.9	2	5	338	0.00	30.058 
12:00	39.6	39.6	39.6	58	26.1	2	6	338	0.00	30.061 
12:05	39.6	39.6	39.6	58	26.1	3	7	338	0.00	30.061 
12:10	39.6	39.6	39.6	57	25.6	2	6	315	0.00	30.061 
12:15	39.6	39.6	39.6	58	26.1	1	5	270	0.00	30.064 
12:20	39.9	39.9	39.9	58	26.3	1	3	292	0.00	30.064 
12:25	40.3	40.3	40.3	57	26.3	1	4	248	0.00	30.064 
12:30	40.3	40.3	40.3	55	25.4	2	4	248	0.00	30.070 
12:35	40.5	40.5	40.5	55	25.6	2	4	292	0.00	30.070 
12:40	40.6	40.6	40.6	55	25.7	1	4	270	0.00	30.070 
12:45	40.2	40.2	40.2	55	25.3	1	4	338	0.00	30.074 
12:50	40.3	40.3	40.3	55	25.4	2	4	270	0.00	30.074 
12:55	40.8	40.8	40.8	55	25.9	2	4	270	0.00	30.074 
13:00	40.6	40.6	40.6	53	24.8	2	4	270	0.00	30.089 
13:05	40.5	40.5	40.5	54	25.2	1	3	315	0.00	30.089 
13:10	40.3	40.3	40.3	54	25.0	2	4	292	0.00	30.089 
13:15	40.2	40.2	40.2	55	25.3	1	3	292	0.00	30.093 
13:20	40.3	40.3	40.3	55	25.4	1	3	292	0.00	30.093 
13:25	40.5	40.5	40.5	56	26.1	1	4	315	0.00	30.093 
13:30	40.6	40.6	40.6	56	26.1	1	4	315	0.00	30.099 
13:35	40.8	40.8	40.8	57	26.8	1	4	248	0.00	30.099 
13:40	41.3	41.3	41.3	55	26.4	2	4	270	0.00	30.099 
13:45	41.2	41.2	41.2	56	26.7	1	3	338	0.00	30.096 
13:50	41.8	41.8	41.8	54	26.4	1	4	248	0.00	30.096 
13:55	41.2	41.2	41.2	53	25.4	2	5	248	0.00	30.096 
14:00	41.2	41.2	41.2	55	26.3	1	3	270	0.00	30.102 
14:05	41.8	41.8	41.8	53	25.9	2	4	270	0.00	30.102 
14:10	41.6	41.6	41.6	52	25.3	2	5	292	0.00	30.102 
14:15	41.9	41.9	41.9	52	25.6	2	5	270	0.00	30.102 
14:20	42.3	42.3	42.3	53	26.4	2	5	248	0.00	30.102 
14:25	42.2	42.2	42.2	51	25.4	2	5	315	0.00	30.102 
14:30	41.8	41.8	41.8	53	25.9	2	5	270	0.00	30.101 
14:35	41.3	41.3	41.3	53	25.5	2	4	338	0.00	30.101 
14:40	41.3	41.3	41.3	55	26.4	1	4	338	0.00	30.101 
14:45	41.8	41.8	41.8	54	26.4	1	3	248	0.00	30.098 
14:50	42.2	42.2	42.2	54	26.8	1	3	248	0.00	30.098 
14:55	42.2	42.2	42.2	53	26.3	1	3	270	0.00	30.098 
15:00	41.8	41.8	41.8	54	26.4	1	4	270	0.00	30.095 
15:05	42.2	42.2	42.2	55	27.2	2	4	270	0.00	30.095 
15:10	42.8	42.8	42.8	53	26.9	1	3	225	0.00	30.095 
15:15	42.6	42.6	42.6	53	26.7	1	4	292	0.00	30.098 
15:20	42.6	42.6	42.6	52	26.2	2	4	248	0.00	30.098 
15:25	42.8	42.8	42.8	53	26.9	1	4	315	0.00	30.098 
15:30	42.5	42.5	42.5	52	26.1	1	3	248	0.00	30.098 
15:35	42.1	42.1	42.1	53	26.2	2	4	270	0.00	30.098 
15:40	41.9	41.9	41.9	53	26.0	1	2	292	0.00	30.098 
15:45	42.6	42.6	42.6	55	27.6	1	3	292	0.00	30.099 
15:50	42.6	42.6	42.6	52	26.2	2	5	338	0.00	30.099 
15:55	42.8	42.8	42.8	52	26.4	1	5	292	0.00	30.099 
16:00	42.2	42.2	42.2	51	25.4	2	5	338	0.00	30.092 
16:05	41.9	41.9	41.9	51	25.1	1	3	270	0.00	30.092 
16:10	42.1	42.1	42.1	53	26.2	1	4	338	0.00	30.092 
16:15	42.2	42.2	42.2	52	25.9	1	3	292	0.00	30.089 
16:20	41.6	41.6	41.6	52	25.3	1	4	338	0.00	30.089 
16:25	41.6	41.6	41.6	52	25.3	1	3	315	0.00	30.089 
16:30	41.9	41.9	41.9	52	25.6	1	3	315	0.00	30.092 
16:35	42.1	42.1	42.1	53	26.2	1	3	315	0.00	30.092 
16:40	41.8	41.8	41.8	53	25.9	0	2	315	0.00	30.092 
16:45	42.1	42.1	42.1	54	26.7	1	3	315	0.00	30.095 
16:50	42.5	42.5	42.5	52	26.1	1	3	248	0.00	30.095 
16:55	42.5	42.5	42.5	52	26.1	1	5	248	0.00	30.095 
17:00	42.2	42.2	42.2	51	25.4	1	3	292	0.00	30.101 
17:05	42.2	42.2	42.2	52	25.9	1	3	0	0.00	30.101 
17:10	42.1	42.1	42.1	50	24.8	1	4	292	0.00	30.101 
17:15	41.8	41.8	41.8	51	25.0	1	3	0	0.00	30.103 
17:20	41.5	41.5	41.5	52	25.2	1	4	292	0.00	30.103 
17:25	41.6	41.6	41.6	52	25.3	1	3	315	0.00	30.103 
17:30	41.5	41.5	41.5	52	25.2	2	5	292	0.00	30.108 
17:35	41.3	41.3	41.3	52	25.0	2	3	292	0.00	30.108 
17:40	41.5	41.5	41.5	52	25.2	1	4	292	0.00	30.108 
17:45	41.6	41.6	41.6	51	24.8	2	4	270	0.00	30.107 
17:50	41.6	41.6	41.6	52	25.3	1	4	0	0.00	30.107 
17:55	41.5	41.5	41.5	52	25.2	1	4	0	0.00	30.107 
18:00	41.3	41.3	41.3	51	24.6	1	4	292	0.00	30.108 
18:05	41.2	41.2	41.2	50	24.0	1	2	292	0.00	30.108 
18:10	41.1	41.1	41.1	51	24.4	1	3	292	0.00	30.108 
18:15	41.1	41.1	41.1	52	24.8	1	2	292	0.00	30.110 
18:20	41.1	41.1	41.1	52	24.8	2	5	315	0.00	30.110 
18:25	41.1	41.1	41.1	53	25.3	1	4	338	0.00	30.110 
18:30	40.9	40.9	40.9	54	25.6	1	2	338	0.00	30.123 
18:35	40.6	40.6	40.6	54	25.3	1	3	270	0.00	30.123 
18:40	40.3	40.3	40.3	55	25.4	1	3	338	0.00	30.123 
18:45	40.3	40.3	40.3	55	25.4	1	2	0	0.00	30.125 
18:50	40.2	40.2	40.2	55	25.3	1	2	0	0.00	30.125 
18:55	40.1	40.1	40.1	55	25.2	1	3	0	0.00	30.125 
19:00	39.9	39.9	39.9	55	25.1	1	3	292	0.00	30.126 
19:05	39.6	39.6	39.6	55	24.8	1	4	270	0.00	30.126 
19:10	39.5	39.5	39.5	55	24.7	1	3	315	0.00	30.126 
19:15	39.2	39.2	39.2	55	24.4	1	3	315	0.00	30.129 
19:20	39.1	39.1	39.1	55	24.3	0	2	315	0.00	30.129 
19:25	38.8	38.8	38.8	56	24.5	1	3	45	0.00	30.129 
19:30	38.5	38.5	38.5	57	24.6	0	2	45	0.00	30.139 
19:35	38.3	38.3	38.3	58	24.8	0	2	45	0.00	30.139 
19:40	38.2	38.2	38.2	58	24.7	0	1	45	0.00	30.139 
19:45	38.0	38.0	38.0	58	24.6	0	1	45	0.00	30.144 
19:50	37.8	37.8	37.8	59	24.8	0	1	45	0.00	30.144 
19:55	37.6	37.6	37.6	59	24.6	0	1	45	0.00	30.144 
20:00	37.6	37.6	37.6	60	25.0	0	2	45	0.00	30.149 
20:05	37.3	37.3	37.3	60	24.7	0	1	45	0.00	30.149 
20:10	37.2	37.2	37.2	60	24.6	0	2	45	0.00	30.149 
20:15	37.0	37.0	37.0	61	24.8	0	1	45	0.00	30.154 
20:20	36.8	36.8	36.8	61	24.6	0	1	45	0.00	30.154 
20:25	36.6	36.6	36.6	61	24.4	0	2	45	0.00	30.154 
20:30	36.5	36.5	36.5	61	24.3	0	2	45	0.00	30.155 
20:35	36.3	36.3	36.3	61	24.2	1	3	45	0.00	30.155 
20:40	36.0	36.0	36.0	61	23.9	0	2	45	0.00	30.155 
20:45	35.9	35.9	35.9	61	23.8	0	1	45	0.00	30.159 
20:50	35.8	35.8	35.8	61	23.7	0	1	45	0.00	30.159 
20:55	35.6	35.6	35.6	61	23.5	0	2	45	0.00	30.159 
21:00	35.5	35.5	35.5	62	23.8	0	1	45	0.00	30.172 
21:05	35.2	35.2	35.2	62	23.5	0	2	45	0.00	30.172 
21:10	35.0	35.0	35.0	62	23.3	0	2	45	0.00	30.172 
21:15	35.0	35.0	35.0	63	23.7	1	2	45	0.00	30.174 
21:20	34.9	34.9	34.9	63	23.6	0	3	45	0.00	30.174 
21:25	34.6	34.6	34.6	63	23.3	0	3	292	0.00	30.174 
21:30	34.4	34.4	34.4	63	23.1	0	1	292	0.00	30.182 
21:35	34.3	34.3	34.3	64	23.4	0	3	292	0.00	30.182 
21:40	34.1	34.1	34.1	64	23.2	0	1	292	0.00	30.182 
21:45	34.1	34.1	34.1	64	23.2	0	2	292	0.00	30.183 
21:50	34.0	34.0	34.0	64	23.1	0	1	292	0.00	30.183 
21:55	33.8	33.8	33.8	64	22.9	0	2	292	0.00	30.183 
22:00	33.8	33.8	33.8	64	22.9	0	2	292	0.00	30.194 
22:05	33.8	33.8	33.8	64	22.9	0	2	292	0.00	30.194 
22:10	33.8	33.8	33.8	64	22.9	1	3	292	0.00	30.194 
22:15	33.7	33.7	33.7	64	22.8	0	2	292	0.00	30.201 
22:20	33.7	33.7	33.7	63	22.5	1	3	315	0.00	30.201 
22:25	33.5	33.5	33.5	62	21.9	1	4	0	0.00	30.201 
22:30	33.4	33.4	33.4	61	21.4	1	4	315	0.00	30.207 
22:35	33.2	33.2	33.2	61	21.2	1	5	315	0.00	30.207 
22:40	33.1	33.1	33.1	61	21.1	1	5	338	0.00	30.207 
22:45	32.9	32.9	32.9	61	20.9	1	4	315	0.00	30.213 
22:50	32.7	32.7	32.7	60	20.4	1	2	315	0.00	30.213 
22:55	32.5	32.5	32.5	61	20.6	1	3	292	0.00	30.213 
23:00	32.4	32.4	32.4	61	20.5	0	3	292	0.00	30.217 
23:05	32.2	32.2	32.2	61	20.3	1	3	22	0.00	30.217 
23:10	32.1	32.1	32.1	61	20.2	1	4	45	0.00	30.217 
23:15	32.1	32.1	32.1	61	20.2	0	3	22	0.00	30.218 
23:20	31.9	31.9	31.9	61	20.0	1	4	22	0.00	30.218 
23:25	31.8	31.8	31.8	62	20.3	1	4	0	0.00	30.218 
23:30	31.6	31.6	31.6	62	20.1	1	4	0	0.00	30.208 
23:35	31.5	31.5	31.5	62	20.0	0	2	338	0.00	30.208 
23:40	31.3	31.3	31.3	63	20.2	1	3	338	0.00	30.208 
23:45	31.3	31.3	31.3	63	20.2	0	3	0	0.00	30.206 
23:50	31.2	31.2	31.2	64	20.5	0	2	0	0.00	30.206 
23:55	31.0	31.0	31.0	65	20.6	0	1	0	0.00	30.206 

CoCoRaHS
IN-AL-39
A2 Web Hosting
Creative Commons License
GoDaddy
search engine by freefind advanced

loaded 2018-11-17 22:23:39 • last modified 2010-11-18 10:43:29
Privacy PolicyDisclaimer
• wx.awcolley.com is powered by PmWiki v.2002016 •
• all content (unless otherwise noted) © 2018 A W Colley